createdAt,value
2023-06-10T00:00:07.129Z,21.50
2023-06-10T00:02:34.205Z,21.40
2023-06-10T00:05:01.312Z,21.40
2023-06-10T00:07:28.692Z,21.30
2023-06-10T00:09:56.471Z,21.30
2023-06-10T00:12:23.379Z,21.20
2023-06-10T00:14:52.575Z,21.20
2023-06-10T00:17:19.835Z,21.20
2023-06-10T00:19:48.384Z,21.10
2023-06-10T00:22:15.656Z,21.00
2023-06-10T00:24:43.171Z,20.90
2023-06-10T00:27:10.060Z,21.00
2023-06-10T00:29:36.997Z,21.00
2023-06-10T00:32:04.398Z,21.00
2023-06-10T00:34:31.570Z,20.80
2023-06-10T00:36:58.505Z,20.50
2023-06-10T00:39:25.497Z,20.20
2023-06-10T00:41:52.391Z,19.90
2023-06-10T00:44:19.344Z,19.70
2023-06-10T00:46:46.864Z,19.50
2023-06-10T00:49:13.961Z,19.40
2023-06-10T00:51:41.163Z,19.30
2023-06-10T00:54:08.796Z,19.20
2023-06-10T00:56:36.316Z,19.10
2023-06-10T00:59:03.530Z,19.00
2023-06-10T01:01:31.055Z,18.90
2023-06-10T01:04:00.016Z,18.80
2023-06-10T01:07:04.375Z,18.70
2023-06-10T01:09:41.951Z,18.70
2023-06-10T01:12:15.626Z,18.60
2023-06-10T01:14:46.363Z,18.50
2023-06-10T01:17:13.586Z,18.50
2023-06-10T01:19:42.120Z,18.50
2023-06-10T01:22:09.006Z,18.50
2023-06-10T01:24:35.972Z,18.50
2023-06-10T01:27:09.832Z,18.60
2023-06-10T01:29:50.454Z,18.60
2023-06-10T01:32:27.949Z,18.50
2023-06-10T01:34:57.132Z,18.40
2023-06-10T01:37:27.419Z,18.40
2023-06-10T01:39:59.689Z,18.40
2023-06-10T01:42:27.325Z,18.60
2023-06-10T01:44:54.628Z,18.90
2023-06-10T01:47:21.899Z,19.00
2023-06-10T01:49:48.838Z,19.20
2023-06-10T01:52:16.006Z,19.50
2023-06-10T01:54:43.044Z,19.60
2023-06-10T01:57:09.952Z,19.70
2023-06-10T01:59:37.699Z,19.70
2023-06-10T02:02:05.821Z,19.70
2023-06-10T02:04:39.337Z,19.70
2023-06-10T02:07:06.998Z,19.60
2023-06-10T02:09:45.586Z,19.70
2023-06-10T02:12:13.180Z,19.60
2023-06-10T02:14:41.000Z,19.60
2023-06-10T02:17:08.212Z,19.50
2023-06-10T02:19:37.909Z,19.40
2023-06-10T02:22:05.128Z,19.40
2023-06-10T02:24:32.015Z,19.50
2023-06-10T02:27:01.656Z,19.40
2023-06-10T02:29:28.611Z,19.40
2023-06-10T02:31:55.567Z,19.40
2023-06-10T02:34:22.806Z,19.30
2023-06-10T02:36:52.516Z,19.30
2023-06-10T02:39:19.434Z,19.50
2023-06-10T02:41:46.396Z,19.40
2023-06-10T02:44:13.304Z,19.30
2023-06-10T02:46:40.358Z,19.20
2023-06-10T02:49:07.368Z,19.20
2023-06-10T02:51:34.213Z,19.20
2023-06-10T02:54:01.125Z,19.20
2023-06-10T02:56:28.191Z,19.20
2023-06-10T02:58:55.075Z,19.10
2023-06-10T03:01:22.106Z,19.20
2023-06-10T03:03:49.106Z,19.30
2023-06-10T03:06:16.100Z,19.20
2023-06-10T03:08:43.269Z,19.20
2023-06-10T03:11:10.297Z,19.10
2023-06-10T03:13:37.262Z,19.20
2023-06-10T03:16:04.610Z,19.10
2023-06-10T03:18:31.622Z,19.10
2023-06-10T03:21:03.608Z,19.10
2023-06-10T03:23:30.979Z,19.00
2023-06-10T03:25:58.545Z,19.00
2023-06-10T03:28:25.441Z,19.00
2023-06-10T03:30:52.994Z,18.90
2023-06-10T03:33:27.198Z,19.00
2023-06-10T03:35:57.725Z,19.20
2023-06-10T03:38:24.632Z,19.10
2023-06-10T03:40:51.479Z,19.00
2023-06-10T03:43:18.534Z,19.00
2023-06-10T03:45:46.444Z,18.90
2023-06-10T03:48:13.410Z,18.90
2023-06-10T03:50:43.252Z,18.90
2023-06-10T03:53:10.124Z,19.10
2023-06-10T03:55:37.470Z,19.20
2023-06-10T03:58:04.340Z,19.20
2023-06-10T04:00:31.269Z,19.20
2023-06-10T04:02:59.687Z,19.40
2023-06-10T04:05:27.425Z,19.70
2023-06-10T04:07:54.758Z,20.10
2023-06-10T04:10:22.155Z,20.50
2023-06-10T04:13:10.379Z,20.90
2023-06-10T04:15:37.908Z,21.10
2023-06-10T04:18:06.741Z,21.40
2023-06-10T04:20:33.853Z,21.60
2023-06-10T04:23:01.029Z,22.10
2023-06-10T04:25:29.093Z,22.30
2023-06-10T04:27:56.248Z,22.40
2023-06-10T04:30:23.706Z,22.70
2023-06-10T04:32:54.826Z,23.10
2023-06-10T04:35:26.094Z,23.40
2023-06-10T04:37:56.133Z,23.70
2023-06-10T04:40:24.294Z,23.70
2023-06-10T04:42:51.176Z,24.00
2023-06-10T04:45:21.145Z,24.00
2023-06-10T04:47:48.693Z,24.30
2023-06-10T04:50:19.231Z,24.20
2023-06-10T04:52:46.659Z,24.00
2023-06-10T04:55:13.534Z,24.00
2023-06-10T04:57:40.410Z,24.00
2023-06-10T05:00:08.056Z,24.30
2023-06-10T05:02:35.066Z,24.50
2023-06-10T05:05:01.984Z,24.60
2023-06-10T05:07:28.894Z,24.70
2023-06-10T05:09:56.093Z,25.00
2023-06-10T05:12:23.474Z,25.00
2023-06-10T05:14:50.325Z,24.90
2023-06-10T05:17:17.206Z,25.20
2023-06-10T05:19:44.686Z,25.70
2023-06-10T05:22:11.688Z,25.80
2023-06-10T05:24:38.558Z,26.20
2023-06-10T05:27:06.015Z,26.60
2023-06-10T05:29:33.091Z,26.60
2023-06-10T05:32:04.327Z,26.80
2023-06-10T05:34:32.231Z,26.90
2023-06-10T05:36:59.254Z,27.60
2023-06-10T05:39:26.440Z,28.40
2023-06-10T05:41:53.311Z,27.90
2023-06-10T05:44:20.267Z,27.60
2023-06-10T05:46:47.383Z,27.70
2023-06-10T05:49:14.782Z,28.00
2023-06-10T05:51:41.656Z,27.90
2023-06-10T05:54:08.537Z,27.70
2023-06-10T05:56:35.669Z,27.80
2023-06-10T05:59:02.626Z,27.60
2023-06-10T06:01:29.630Z,27.60
2023-06-10T06:03:56.581Z,27.80
2023-06-10T06:06:24.366Z,28.10
2023-06-10T06:08:51.260Z,28.20
2023-06-10T06:11:18.197Z,28.20
2023-06-10T06:13:45.159Z,28.50
2023-06-10T06:16:12.110Z,28.70
2023-06-10T06:18:39.027Z,29.00
2023-06-10T06:21:05.999Z,28.80
2023-06-10T06:23:32.944Z,28.30
2023-06-10T06:25:59.838Z,28.30
2023-06-10T06:28:30.505Z,28.90
2023-06-10T06:30:58.124Z,29.70
2023-06-10T06:33:27.504Z,29.40
2023-06-10T06:35:54.387Z,29.20
2023-06-10T06:38:21.267Z,29.20
2023-06-10T06:40:48.101Z,29.30
2023-06-10T06:43:15.032Z,29.00
2023-06-10T06:45:41.902Z,29.30
2023-06-10T06:48:08.848Z,29.50
2023-06-10T06:50:35.864Z,29.30
2023-06-10T06:53:02.756Z,28.90
2023-06-10T06:55:29.705Z,28.60
2023-06-10T06:57:56.946Z,28.50
2023-06-10T07:00:23.929Z,28.50
2023-06-10T07:02:51.016Z,28.50
2023-06-10T07:05:18.062Z,29.20
2023-06-10T07:07:45.007Z,29.40
2023-06-10T07:10:12.182Z,29.60
2023-06-10T07:12:39.055Z,30.00
2023-06-10T07:15:06.697Z,29.40
2023-06-10T07:17:33.818Z,29.60
2023-06-10T07:20:00.894Z,30.30
2023-06-10T07:22:27.929Z,30.40
2023-06-10T07:24:56.033Z,30.60
2023-06-10T07:27:22.993Z,30.30
2023-06-10T07:29:49.878Z,30.60
2023-06-10T07:32:19.381Z,30.70
2023-06-10T07:34:46.427Z,31.00
2023-06-10T07:37:13.285Z,31.30
2023-06-10T07:39:40.174Z,30.90
2023-06-10T07:42:07.716Z,31.60
2023-06-10T07:44:34.589Z,31.90
2023-06-10T07:47:01.597Z,31.90
2023-06-10T07:49:28.532Z,31.40
2023-06-10T07:51:56.894Z,31.10
2023-06-10T07:54:23.761Z,31.20
2023-06-10T07:56:50.848Z,31.10
2023-06-10T07:59:17.751Z,31.50
2023-06-10T08:01:44.655Z,32.00
2023-06-10T08:04:11.705Z,32.10
2023-06-10T08:06:38.691Z,32.10
2023-06-10T08:09:05.728Z,31.60
2023-06-10T08:11:32.631Z,31.90
2023-06-10T08:13:59.492Z,31.90
2023-06-10T08:18:57.319Z,31.80
2023-06-10T08:21:24.318Z,31.50
2023-06-10T08:23:54.717Z,31.40
2023-06-10T08:26:21.836Z,31.60
2023-06-10T08:28:50.429Z,31.90
2023-06-10T08:31:18.480Z,31.80
2023-06-10T08:33:46.579Z,31.70
2023-06-10T08:36:13.548Z,32.00
2023-06-10T08:38:40.537Z,32.40
2023-06-10T08:41:10.615Z,32.30
2023-06-10T08:43:43.160Z,32.10
2023-06-10T08:46:11.335Z,32.30
2023-06-10T08:48:48.098Z,32.00
2023-06-10T08:51:16.774Z,31.90
2023-06-10T08:53:54.224Z,31.50
2023-06-10T08:56:22.926Z,31.60
2023-06-10T08:58:50.021Z,31.50
2023-06-10T09:01:18.159Z,31.80
2023-06-10T09:03:45.417Z,32.00
2023-06-10T09:06:12.301Z,32.00
2023-06-10T09:08:40.122Z,31.90
2023-06-10T09:11:07.640Z,32.20
2023-06-10T09:13:34.523Z,31.90
2023-06-10T09:16:04.528Z,31.50
2023-06-10T09:18:31.976Z,31.70
2023-06-10T09:20:58.913Z,31.60
2023-06-10T09:23:26.595Z,31.60
2023-06-10T09:26:00.169Z,31.40
2023-06-10T09:28:27.328Z,31.50
2023-06-10T09:31:15.190Z,31.40
2023-06-10T09:33:42.332Z,31.60
2023-06-10T09:36:09.324Z,32.00
2023-06-10T09:38:36.692Z,32.20
2023-06-10T09:41:04.729Z,32.40
2023-06-10T09:43:43.051Z,32.10
2023-06-10T09:46:20.277Z,32.00
2023-06-10T09:48:48.736Z,32.20
2023-06-10T09:51:18.391Z,32.40
2023-06-10T09:53:50.827Z,31.90
2023-06-10T09:56:17.814Z,31.60
2023-06-10T09:58:47.346Z,30.90
2023-06-10T10:01:16.481Z,30.50
2023-06-10T10:03:52.254Z,30.30
2023-06-10T10:06:21.073Z,30.00
2023-06-10T10:08:50.443Z,29.60
2023-06-10T10:11:23.758Z,29.30
2023-06-10T10:13:54.484Z,29.00
2023-06-10T10:18:58.920Z,29.10
2023-06-10T10:21:28.337Z,29.10
2023-06-10T10:24:01.566Z,29.10
2023-06-10T10:26:28.728Z,29.10
2023-06-10T10:29:17.411Z,28.90
2023-06-10T10:31:46.039Z,28.60
2023-06-10T10:34:29.403Z,28.60
2023-06-10T10:36:56.276Z,28.70
2023-06-10T10:39:23.645Z,28.80
2023-06-10T10:41:51.885Z,28.50
2023-06-10T10:44:20.370Z,28.50
2023-06-10T10:46:51.893Z,28.50
2023-06-10T10:49:24.066Z,28.50
2023-06-10T10:51:58.870Z,28.50
2023-06-10T10:54:36.239Z,28.60
2023-06-10T10:57:17.139Z,28.70
2023-06-10T10:59:48.028Z,28.60
2023-06-10T11:02:19.631Z,28.50
2023-06-10T11:04:48.997Z,28.70
2023-06-10T11:07:22.880Z,28.60
2023-06-10T11:10:08.125Z,28.60
2023-06-10T11:12:46.945Z,28.80
2023-06-10T11:15:14.770Z,28.70
2023-06-10T11:18:07.919Z,28.70
2023-06-10T11:20:49.688Z,28.80
2023-06-10T11:23:28.756Z,28.90
2023-06-10T11:26:22.380Z,28.90
2023-06-10T11:28:49.262Z,28.80
2023-06-10T11:31:40.238Z,28.70
2023-06-10T11:34:09.006Z,28.70
2023-06-10T11:36:41.830Z,28.70
2023-06-10T11:39:09.250Z,28.70
2023-06-10T11:41:37.182Z,28.80
2023-06-10T11:44:19.543Z,29.00
2023-06-10T11:46:49.039Z,29.10
2023-06-10T11:49:15.922Z,29.10
2023-06-10T11:51:50.546Z,29.10
2023-06-10T11:54:18.587Z,29.10
2023-06-10T11:56:45.854Z,29.10
2023-06-10T11:59:13.230Z,29.10
2023-06-10T12:01:47.504Z,29.10
2023-06-10T12:04:27.224Z,29.10
2023-06-10T12:06:55.204Z,29.20
2023-06-10T12:09:25.853Z,29.20
2023-06-10T12:12:03.914Z,29.20
2023-06-10T12:14:57.977Z,29.40
2023-06-10T12:17:38.697Z,29.50
2023-06-10T12:20:09.442Z,29.60
2023-06-10T12:22:45.959Z,29.70
2023-06-10T12:25:15.341Z,29.60
2023-06-10T12:27:54.936Z,29.60
2023-06-10T12:30:27.591Z,29.60
2023-06-10T12:32:54.989Z,29.60
2023-06-10T12:35:27.431Z,29.60
2023-06-10T12:38:02.559Z,29.70
2023-06-10T12:40:37.627Z,29.70
2023-06-10T12:43:05.052Z,29.60
2023-06-10T12:45:36.051Z,29.50
2023-06-10T12:48:29.363Z,29.50
2023-06-10T12:50:59.568Z,29.60
2023-06-10T12:53:30.458Z,29.80
2023-06-10T12:55:57.671Z,29.90
2023-06-10T12:58:25.362Z,30.10
2023-06-10T13:00:54.440Z,30.10
2023-06-10T13:03:21.915Z,30.10
2023-06-10T13:05:49.763Z,30.10
2023-06-10T13:08:16.829Z,29.90
2023-06-10T13:10:43.909Z,29.80
2023-06-10T13:13:11.321Z,29.90
2023-06-10T13:15:42.705Z,29.90
2023-06-10T13:18:10.486Z,29.90
2023-06-10T13:20:37.618Z,29.90
2023-06-10T13:23:04.712Z,30.10
2023-06-10T13:25:31.695Z,30.10
2023-06-10T13:27:58.759Z,30.10
2023-06-10T13:30:26.026Z,30.00
2023-06-10T13:32:52.938Z,29.90
2023-06-10T13:35:19.924Z,30.00
2023-06-10T13:37:46.890Z,30.30
2023-06-10T13:40:13.919Z,30.30
2023-06-10T13:42:40.827Z,30.40
2023-06-10T13:45:08.552Z,30.40
2023-06-10T13:47:35.760Z,30.30
2023-06-10T13:50:03.104Z,30.20
2023-06-10T13:52:30.021Z,30.20
2023-06-10T13:54:56.905Z,29.90
2023-06-10T13:57:23.797Z,29.80
2023-06-10T13:59:50.684Z,29.70
2023-06-10T14:02:18.052Z,29.70
2023-06-10T14:04:45.042Z,29.80
2023-06-10T14:07:12.165Z,30.00
2023-06-10T14:09:39.029Z,30.30
2023-06-10T14:12:06.492Z,30.40
2023-06-10T14:14:34.411Z,30.40
2023-06-10T14:17:01.427Z,30.50
2023-06-10T14:19:28.427Z,30.30
2023-06-10T14:21:56.840Z,30.20
2023-06-10T14:24:23.932Z,30.20
2023-06-10T14:26:51.897Z,30.20
2023-06-10T14:29:20.821Z,30.10
2023-06-10T14:31:49.534Z,29.90
2023-06-10T14:34:16.622Z,29.90
2023-06-10T14:36:44.342Z,30.00
2023-06-10T14:39:17.505Z,30.00
2023-06-10T14:41:44.580Z,30.20
2023-06-10T14:44:11.452Z,30.30
2023-06-10T14:46:39.321Z,30.30
2023-06-10T14:49:06.314Z,30.30
2023-06-10T14:51:35.911Z,30.20
2023-06-10T14:54:03.714Z,30.20
2023-06-10T14:56:30.889Z,30.20
2023-06-10T14:58:57.795Z,30.30
2023-06-10T15:01:24.836Z,30.30
2023-06-10T15:03:51.795Z,30.40
2023-06-10T15:06:22.156Z,30.40
2023-06-10T15:08:51.993Z,30.40
2023-06-10T15:11:19.013Z,30.50
2023-06-10T15:13:45.924Z,30.50
2023-06-10T15:18:54.891Z,30.50
2023-06-10T15:21:21.749Z,30.50
2023-06-10T15:23:48.799Z,30.50
2023-06-10T15:26:16.161Z,30.50
2023-06-10T15:28:43.034Z,30.70
2023-06-10T15:31:10.078Z,30.70
2023-06-10T15:33:37.245Z,30.60
2023-06-10T15:36:06.132Z,30.70
2023-06-10T15:38:33.011Z,30.70
2023-06-10T15:40:59.883Z,30.80
2023-06-10T15:43:26.826Z,30.70
2023-06-10T15:45:53.781Z,30.70
2023-06-10T15:48:20.808Z,30.90
2023-06-10T15:50:47.834Z,30.90
2023-06-10T15:53:14.699Z,30.70
2023-06-10T15:55:41.567Z,30.50
2023-06-10T15:58:08.536Z,30.40
2023-06-10T16:00:35.540Z,30.20
2023-06-10T16:03:02.617Z,30.10
2023-06-10T16:05:29.652Z,30.00
2023-06-10T16:07:57.682Z,29.90
2023-06-10T16:10:26.900Z,29.90
2023-06-10T16:12:53.883Z,29.80
2023-06-10T16:15:20.782Z,29.70
2023-06-10T16:17:48.475Z,29.80
2023-06-10T16:20:15.667Z,29.70
2023-06-10T16:22:42.519Z,29.70
2023-06-10T16:25:09.837Z,29.60
2023-06-10T16:27:37.073Z,29.50
2023-06-10T16:30:04.356Z,29.50
2023-06-10T16:32:31.402Z,29.50
2023-06-10T16:34:58.411Z,29.30
2023-06-10T16:37:25.342Z,29.30
2023-06-10T16:39:52.454Z,29.20
2023-06-10T16:42:19.633Z,29.10
2023-06-10T16:44:46.508Z,29.30
2023-06-10T16:47:13.480Z,29.30
2023-06-10T16:49:40.492Z,29.30
2023-06-10T16:52:07.597Z,29.20
2023-06-10T16:54:34.575Z,29.30
2023-06-10T16:57:07.182Z,29.20
2023-06-10T16:59:34.541Z,29.20
2023-06-10T17:02:04.005Z,29.10
2023-06-10T17:04:38.073Z,29.10
2023-06-10T17:07:05.281Z,29.00
2023-06-10T17:09:33.150Z,28.90
2023-06-10T17:12:00.928Z,29.00
2023-06-10T17:14:31.047Z,29.10
2023-06-10T17:16:59.872Z,28.90
2023-06-10T17:19:27.918Z,28.80
2023-06-10T17:21:54.828Z,28.90
2023-06-10T17:24:22.105Z,28.80
2023-06-10T17:26:49.533Z,28.70
2023-06-10T17:29:16.537Z,28.50
2023-06-10T17:31:43.505Z,28.50
2023-06-10T17:34:10.497Z,28.50
2023-06-10T17:36:52.345Z,28.40
2023-06-10T17:39:19.330Z,28.30
2023-06-10T17:41:46.563Z,28.20
2023-06-10T17:44:13.556Z,28.20
2023-06-10T17:46:40.562Z,28.10
2023-06-10T17:49:07.565Z,28.10
2023-06-10T17:51:34.511Z,28.10
2023-06-10T17:54:01.925Z,28.10
2023-06-10T17:56:28.947Z,28.10
2023-06-10T17:58:56.051Z,28.10
2023-06-10T18:01:22.972Z,28.10
2023-06-10T18:03:49.940Z,28.10
2023-06-10T18:06:16.857Z,28.10
2023-06-10T18:08:43.806Z,28.00
2023-06-10T18:11:10.785Z,28.00
2023-06-10T18:13:37.656Z,28.00
2023-06-10T18:16:06.055Z,28.10
2023-06-10T18:18:33.085Z,28.00
2023-06-10T18:21:02.811Z,27.90
2023-06-10T18:23:30.160Z,27.90
2023-06-10T18:25:57.013Z,27.80
2023-06-10T18:28:24.508Z,27.60
2023-06-10T18:30:53.909Z,27.60
2023-06-10T18:33:20.859Z,27.60
2023-06-10T18:35:47.744Z,27.50
2023-06-10T18:38:14.722Z,27.60
2023-06-10T18:40:41.802Z,27.40
2023-06-10T18:43:08.902Z,27.30
2023-06-10T18:45:35.943Z,27.30
2023-06-10T18:48:02.892Z,27.20
2023-06-10T18:50:30.024Z,27.20
2023-06-10T18:52:57.534Z,27.10
2023-06-10T18:55:24.997Z,27.10
2023-06-10T18:57:51.974Z,27.00
2023-06-10T19:00:19.136Z,26.90
2023-06-10T19:02:46.163Z,26.90
2023-06-10T19:05:14.482Z,26.90
2023-06-10T19:07:41.455Z,26.80
2023-06-10T19:10:08.997Z,26.70
2023-06-10T19:12:36.071Z,26.70
2023-06-10T19:15:04.310Z,26.50
2023-06-10T19:17:31.567Z,26.50
2023-06-10T19:19:58.661Z,26.50
2023-06-10T19:22:25.591Z,26.50
2023-06-10T19:25:06.678Z,26.40
2023-06-10T19:27:34.470Z,26.30
2023-06-10T19:30:02.144Z,26.20
2023-06-10T19:32:29.318Z,26.10
2023-06-10T19:34:56.335Z,26.10
2023-06-10T19:37:23.318Z,26.00
2023-06-10T19:39:50.193Z,26.00
2023-06-10T19:42:17.198Z,25.90
2023-06-10T19:44:44.103Z,25.80
2023-06-10T19:47:11.963Z,25.70
2023-06-10T19:49:38.892Z,25.70
2023-06-10T19:52:08.039Z,25.50
2023-06-10T19:54:36.142Z,25.50
2023-06-10T19:57:03.816Z,25.50
2023-06-10T19:59:31.179Z,25.40
2023-06-10T20:01:58.263Z,25.30
2023-06-10T20:04:25.636Z,25.30
2023-06-10T20:06:52.570Z,25.30
2023-06-10T20:09:19.467Z,25.20
2023-06-10T20:11:46.360Z,25.20
2023-06-10T20:14:13.221Z,25.20
2023-06-10T20:16:40.260Z,25.20
2023-06-10T20:19:07.288Z,25.10
2023-06-10T20:21:34.263Z,25.00
2023-06-10T20:24:01.204Z,25.00
2023-06-10T20:26:28.134Z,24.90
2023-06-10T20:28:55.021Z,24.80
2023-06-10T20:31:22.743Z,24.70
2023-06-10T20:33:49.657Z,24.70
2023-06-10T20:36:16.835Z,24.70
2023-06-10T20:38:43.695Z,24.70
2023-06-10T20:41:10.646Z,24.50
2023-06-10T20:43:37.542Z,24.50
2023-06-10T20:46:04.715Z,24.40
2023-06-10T20:48:31.623Z,24.40
2023-06-10T20:50:58.592Z,24.50
2023-06-10T20:53:25.710Z,24.30
2023-06-10T20:55:52.649Z,24.20
2023-06-10T20:58:19.591Z,24.20
2023-06-10T21:00:47.409Z,24.20
2023-06-10T21:03:14.437Z,24.10
2023-06-10T21:05:41.651Z,24.10
2023-06-10T21:08:08.845Z,24.00
2023-06-10T21:10:35.885Z,24.00
2023-06-10T21:13:02.784Z,23.90
2023-06-10T21:15:29.629Z,23.90
2023-06-10T21:17:56.621Z,23.90
2023-06-10T21:20:24.183Z,23.90
2023-06-10T21:22:51.086Z,24.00
2023-06-10T21:25:18.062Z,24.00
2023-06-10T21:27:44.998Z,23.80
2023-06-10T21:30:12.157Z,23.70
2023-06-10T21:32:39.306Z,23.60
2023-06-10T21:35:06.753Z,23.60
2023-06-10T21:37:33.622Z,23.60
2023-06-10T21:40:00.524Z,23.40
2023-06-10T21:42:27.434Z,23.40
2023-06-10T21:44:54.317Z,23.30
2023-06-10T21:47:21.214Z,23.20
2023-06-10T21:49:49.325Z,23.10
2023-06-10T21:52:16.309Z,23.20
2023-06-10T21:54:43.232Z,23.20
2023-06-10T21:57:10.184Z,23.20
2023-06-10T21:59:37.731Z,23.20
2023-06-10T22:02:04.973Z,23.20
2023-06-10T22:04:31.862Z,23.10
2023-06-10T22:06:59.363Z,23.10
2023-06-10T22:09:26.275Z,23.00
2023-06-10T22:11:53.313Z,22.90
2023-06-10T22:14:20.313Z,22.80
2023-06-10T22:16:47.390Z,22.80
2023-06-10T22:19:14.320Z,22.80
2023-06-10T22:21:42.170Z,22.80
2023-06-10T22:24:09.482Z,23.00
2023-06-10T22:26:52.120Z,22.80
2023-06-10T22:29:20.133Z,22.70
2023-06-10T22:31:47.075Z,22.70
2023-06-10T22:34:13.985Z,22.70
2023-06-10T22:36:41.281Z,22.70
2023-06-10T22:39:13.274Z,22.40
2023-06-10T22:41:41.259Z,22.30
2023-06-10T22:44:08.175Z,22.40
2023-06-10T22:46:35.325Z,22.60
2023-06-10T22:49:02.463Z,22.50
2023-06-10T22:51:29.412Z,22.40
2023-06-10T22:53:56.452Z,22.40
2023-06-10T22:56:24.928Z,22.30
2023-06-10T22:58:52.115Z,22.30
2023-06-10T23:01:19.161Z,22.30
2023-06-10T23:03:47.486Z,22.20
2023-06-10T23:06:16.169Z,22.20
2023-06-10T23:08:43.181Z,22.30
2023-06-10T23:11:10.054Z,22.20
2023-06-10T23:13:36.910Z,22.30
2023-06-10T23:16:03.908Z,22.30
2023-06-10T23:18:31.032Z,22.20
2023-06-10T23:20:59.210Z,22.20
2023-06-10T23:23:35.673Z,22.20
2023-06-10T23:26:03.063Z,22.00
2023-06-10T23:28:30.035Z,22.10
2023-06-10T23:30:57.409Z,22.00
2023-06-10T23:33:25.095Z,21.60
2023-06-10T23:35:52.188Z,21.50
2023-06-10T23:38:19.168Z,21.50
2023-06-10T23:40:46.102Z,21.50
2023-06-10T23:43:14.254Z,21.50
2023-06-10T23:45:41.269Z,21.60
2023-06-10T23:48:08.479Z,21.70
2023-06-10T23:50:39.501Z,21.70
2023-06-10T23:53:06.961Z,21.60
2023-06-10T23:55:35.548Z,21.40
2023-06-10T23:58:03.815Z,21.40
